MVA1793 LPGR-LPLA

Flight info

Callsign MVA1793
Flight time 0h 45m
Altitude 35000
Route VESO1E VESOB
Aircraft BE58/M-SDFGIRY/S

Departure

Time 2026-05-06 23:07
Airport Graciosa Airport (LPGR)

Arrival

Time 2026-05-06 23:52
Airport Lajes Airport (LPLA)
Time Latitude Longitude Altitude Speed Heading
2026-05-06 22:51 39.09115 -28.02877 98 ft 0 kts 263°
2026-05-06 22:57 39.09120 -28.02884 98 ft 3 kts 354°
2026-05-06 22:57 39.09138 -28.02869 97 ft 2 kts 37°
2026-05-06 22:58 39.09142 -28.02865 97 ft 0 kts 37°
2026-05-06 22:58 39.09147 -28.02860 97 ft 3 kts 35°
2026-05-06 22:59 39.09170 -28.02848 97 ft 4 kts 359°
2026-05-06 22:59 39.09194 -28.02850 92 ft 4 kts 356°
2026-05-06 22:59 39.09231 -28.02889 86 ft 0 kts 255°
2026-05-06 23:00 39.09214 -28.02940 86 ft 33 kts 236°
2026-05-06 23:01 39.09008 -28.03070 98 ft 8 kts 224°
2026-05-06 23:01 39.09115 -28.02877 98 ft 12 kts 263°
2026-05-06 23:05 39.09115 -28.02881 98 ft 2 kts 290°
2026-05-06 23:06 39.09157 -28.02855 96 ft 11 kts 31°
2026-05-06 23:06 39.09244 -28.02854 85 ft 11 kts 285°
2026-05-06 23:06 39.09242 -28.02868 86 ft 0 kts 250°
2026-05-06 23:06 39.09221 -28.02964 88 ft 47 kts 255°
2026-05-06 23:07 39.09094 -28.03711 226 ft 105 kts 259°
2026-05-06 23:07 39.08915 -28.04596 740 ft 110 kts 252°
2026-05-06 23:07 39.08668 -28.05633 1014 ft 130 kts 272°
2026-05-06 23:07 39.09135 -28.06590 1372 ft 135 kts 334°
2026-05-06 23:08 39.10060 -28.06820 1775 ft 137 kts 353°
2026-05-06 23:08 39.10952 -28.06522 2155 ft 142 kts 41°
2026-05-06 23:08 39.11322 -28.05350 2564 ft 148 kts 87°
2026-05-06 23:08 39.11341 -28.04016 2999 ft 150 kts 87°
2026-05-06 23:09 39.11384 -28.02670 3429 ft 151 kts 84°
2026-05-06 23:09 39.11471 -28.01315 3743 ft 152 kts 84°
2026-05-06 23:09 39.11577 -27.99953 4226 ft 154 kts 81°
2026-05-06 23:09 39.11688 -27.98575 4625 ft 155 kts 80°
2026-05-06 23:10 39.11802 -27.97186 5031 ft 156 kts 80°
2026-05-06 23:10 39.11916 -27.95795 5413 ft 156 kts 80°
2026-05-06 23:10 39.12018 -27.94399 5794 ft 157 kts 88°
2026-05-06 23:10 39.11826 -27.93508 6030 ft 159 kts 121°
2026-05-06 23:11 39.10949 -27.91999 6545 ft 156 kts 126°
2026-05-06 23:11 39.10536 -27.91241 6786 ft 155 kts 125°
2026-05-06 23:11 39.09929 -27.90100 7125 ft 154 kts 124°
2026-05-06 23:11 39.09126 -27.88575 7447 ft 162 kts 125°
2026-05-06 23:12 39.08464 -27.87318 7458 ft 177 kts 125°
2026-05-06 23:12 39.07984 -27.86406 7456 ft 185 kts 125°
2026-05-06 23:12 39.07247 -27.85006 7458 ft 192 kts 125°
2026-05-06 23:12 39.06487 -27.83560 7457 ft 197 kts 124°
2026-05-06 23:13 39.05724 -27.82107 7450 ft 200 kts 124°
2026-05-06 23:13 39.04944 -27.80627 7450 ft 201 kts 124°
2026-05-06 23:13 39.04154 -27.79126 7450 ft 202 kts 124°
2026-05-06 23:13 39.03361 -27.77622 7450 ft 203 kts 124°
2026-05-06 23:14 39.02566 -27.76113 7444 ft 204 kts 124°
2026-05-06 23:14 39.01770 -27.74604 7445 ft 204 kts 124°
2026-05-06 23:14 39.00970 -27.73087 7443 ft 205 kts 125°
2026-05-06 23:14 39.00168 -27.71567 7443 ft 205 kts 125°
2026-05-06 23:15 38.99366 -27.70049 7439 ft 206 kts 125°
2026-05-06 23:15 38.98561 -27.68526 7439 ft 206 kts 125°
2026-05-06 23:15 38.97758 -27.67006 7438 ft 206 kts 125°
2026-05-06 23:15 38.96945 -27.65471 7436 ft 208 kts 125°
2026-05-06 23:16 38.96127 -27.63926 7436 ft 209 kts 125°
2026-05-06 23:16 38.95308 -27.62375 7437 ft 210 kts 125°
2026-05-06 23:16 38.94485 -27.60823 7436 ft 210 kts 125°
2026-05-06 23:16 38.93663 -27.59271 7439 ft 210 kts 125°
2026-05-06 23:17 38.92842 -27.57721 7431 ft 211 kts 125°
2026-05-06 23:17 38.92019 -27.56170 7431 ft 211 kts 125°
2026-05-06 23:17 38.91191 -27.54610 7431 ft 211 kts 125°
2026-05-06 23:17 38.90367 -27.53060 7431 ft 210 kts 125°
2026-05-06 23:18 38.89553 -27.51525 7426 ft 210 kts 125°
2026-05-06 23:18 38.88727 -27.49971 7428 ft 211 kts 125°
2026-05-06 23:18 38.87900 -27.48416 7428 ft 211 kts 125°
2026-05-06 23:18 38.87076 -27.46866 7428 ft 211 kts 125°
2026-05-06 23:19 38.86249 -27.45314 7423 ft 211 kts 126°
2026-05-06 23:19 38.85422 -27.43760 7424 ft 210 kts 126°
2026-05-06 23:19 38.84596 -27.42209 7423 ft 210 kts 126°
2026-05-06 23:19 38.83774 -27.40666 7423 ft 210 kts 126°
2026-05-06 23:20 38.82960 -27.39141 7416 ft 210 kts 126°
2026-05-06 23:20 38.82136 -27.37595 7416 ft 210 kts 126°
2026-05-06 23:20 38.81310 -27.36048 7415 ft 210 kts 126°
2026-05-06 23:20 38.80485 -27.34503 7413 ft 210 kts 126°
2026-05-06 23:21 38.79661 -27.32960 7414 ft 210 kts 126°
2026-05-06 23:21 38.78836 -27.31415 7414 ft 211 kts 126°
2026-05-06 23:21 38.78002 -27.29857 7414 ft 211 kts 126°
2026-05-06 23:21 38.77170 -27.28303 7416 ft 212 kts 126°
2026-05-06 23:22 38.76337 -27.26746 7409 ft 212 kts 126°
2026-05-06 23:22 38.75504 -27.25189 7410 ft 212 kts 126°
2026-05-06 23:22 38.74678 -27.23648 7410 ft 213 kts 126°
2026-05-06 23:22 38.73849 -27.22101 7494 ft 208 kts 126°
2026-05-06 23:23 38.73024 -27.20564 7492 ft 210 kts 126°
2026-05-06 23:23 38.72194 -27.19016 7491 ft 210 kts 127°
2026-05-06 23:23 38.71365 -27.17471 7365 ft 210 kts 126°
2026-05-06 23:23 38.70536 -27.15928 7375 ft 210 kts 126°
2026-05-06 23:24 38.69708 -27.14387 7380 ft 210 kts 126°
2026-05-06 23:24 38.68880 -27.12846 7368 ft 210 kts 126°
2026-05-06 23:24 38.68050 -27.11303 7369 ft 211 kts 126°
2026-05-06 23:24 38.67217 -27.09754 7369 ft 211 kts 126°
2026-05-06 23:25 38.66384 -27.08208 7495 ft 211 kts 127°
2026-05-06 23:25 38.65567 -27.06688 7494 ft 211 kts 126°
2026-05-06 23:25 38.64731 -27.05140 7494 ft 212 kts 126°
2026-05-06 23:25 38.63906 -27.03610 7495 ft 212 kts 126°
2026-05-06 23:26 38.63068 -27.02055 7490 ft 212 kts 126°
2026-05-06 23:26 38.62229 -27.00500 7490 ft 212 kts 126°
2026-05-06 23:26 38.61389 -26.98945 7490 ft 213 kts 126°
2026-05-06 23:26 38.60541 -26.97376 7365 ft 219 kts 126°
2026-05-06 23:27 38.59635 -26.95705 6852 ft 238 kts 126°
2026-05-06 23:27 38.58757 -26.93842 6251 ft 252 kts 111°
2026-05-06 23:27 38.58594 -26.91620 5805 ft 253 kts 79°
2026-05-06 23:27 38.59317 -26.89648 5580 ft 243 kts 47°
2026-05-06 23:28 38.60672 -26.88477 5365 ft 234 kts 15°
2026-05-06 23:28 38.62279 -26.88399 5160 ft 233 kts 343°
2026-05-06 23:28 38.63661 -26.89411 4966 ft 232 kts 312°
2026-05-06 23:28 38.64423 -26.91208 4769 ft 233 kts 284°
2026-05-06 23:29 38.64734 -26.93231 4607 ft 235 kts 281°
2026-05-06 23:29 38.65167 -26.95245 4434 ft 232 kts 288°
2026-05-06 23:29 38.65796 -26.97124 4255 ft 227 kts 295°
2026-05-06 23:29 38.66610 -26.98829 4070 ft 221 kts 304°
2026-05-06 23:30 38.67640 -27.00252 3792 ft 218 kts 316°
2026-05-06 23:30 38.68827 -27.01450 3594 ft 214 kts 320°
2026-05-06 23:30 38.69988 -27.02598 3401 ft 211 kts 319°
2026-05-06 23:30 38.71124 -27.03778 3209 ft 208 kts 318°
2026-05-06 23:31 38.72237 -27.04946 3032 ft 206 kts 318°
2026-05-06 23:31 38.73328 -27.06086 2837 ft 205 kts 318°
2026-05-06 23:31 38.74447 -27.07247 2622 ft 204 kts 321°
2026-05-06 23:31 38.75760 -27.07854 2400 ft 209 kts 355°
2026-05-06 23:32 38.77152 -27.07345 2172 ft 213 kts 33°
2026-05-06 23:32 38.78059 -27.05878 2004 ft 210 kts 71°
2026-05-06 23:32 38.78100 -27.04099 1992 ft 197 kts 109°
2026-05-06 23:32 38.77379 -27.02702 1992 ft 183 kts 136°
2026-05-06 23:33 38.76510 -27.01572 2000 ft 174 kts 137°
2026-05-06 23:33 38.75676 -27.00494 1992 ft 166 kts 137°
2026-05-06 23:33 38.74880 -26.99465 1993 ft 161 kts 137°
2026-05-06 23:33 38.74074 -26.98432 1992 ft 167 kts 137°
2026-05-06 23:34 38.73239 -26.97363 2000 ft 172 kts 137°
2026-05-06 23:34 38.72392 -26.96244 2001 ft 178 kts 137°
2026-05-06 23:34 38.71561 -26.95063 2120 ft 177 kts 134°
2026-05-06 23:34 38.70791 -26.93843 2208 ft 178 kts 131°
2026-05-06 23:35 38.70067 -26.92523 2264 ft 182 kts 127°
2026-05-06 23:35 38.69436 -26.91142 2435 ft 178 kts 121°
2026-05-06 23:35 38.68907 -26.89682 2453 ft 184 kts 115°
2026-05-06 23:35 38.68511 -26.88146 2651 ft 178 kts 107°
2026-05-06 23:36 38.68277 -26.86580 2645 ft 186 kts 98°
2026-05-06 23:36 38.68213 -26.84904 2769 ft 184 kts 89°
2026-05-06 23:36 38.68350 -26.83295 2877 ft 184 kts 79°
2026-05-06 23:36 38.68712 -26.81667 2847 ft 192 kts 68°
2026-05-06 23:37 38.69280 -26.80196 3129 ft 180 kts 57°
2026-05-06 23:37 38.70160 -26.79081 3150 ft 181 kts 32°
2026-05-06 23:37 38.71256 -26.78287 3175 ft 180 kts 11°
2026-05-06 23:37 38.72454 -26.78455 3191 ft 174 kts 327°
2026-05-06 23:38 38.73192 -26.79573 3216 ft 164 kts 284°
2026-05-06 23:38 38.73249 -26.80987 3244 ft 162 kts 258°
2026-05-06 23:38 38.72864 -26.82327 3305 ft 156 kts 248°
2026-05-06 23:38 38.72466 -26.83642 3359 ft 162 kts 250°
2026-05-06 23:39 38.72101 -26.85044 3414 ft 169 kts 253°
2026-05-06 23:39 38.71748 -26.86546 3191 ft 186 kts 253°
2026-05-06 23:39 38.71367 -26.88211 2868 ft 204 kts 254°
2026-05-06 23:39 38.70951 -26.90026 2566 ft 218 kts 253°
2026-05-06 23:40 38.70517 -26.91907 2373 ft 224 kts 253°
2026-05-06 23:40 38.70076 -26.93822 2171 ft 222 kts 253°
2026-05-06 23:40 38.69662 -26.95606 2009 ft 198 kts 253°
2026-05-06 23:40 38.69298 -26.97172 1996 ft 181 kts 253°
2026-05-06 23:41 38.68945 -26.98718 1997 ft 184 kts 255°
2026-05-06 23:41 38.68922 -27.00358 1994 ft 188 kts 280°
2026-05-06 23:41 38.69453 -27.01898 1992 ft 194 kts 304°
2026-05-06 23:41 38.70435 -27.03087 1885 ft 197 kts 319°
2026-05-06 23:42 38.71568 -27.04208 1369 ft 210 kts 319°
2026-05-06 23:42 38.72726 -27.05408 904 ft 217 kts 318°
2026-05-06 23:42 38.73883 -27.06687 459 ft 222 kts 318°
2026-05-06 23:42 38.75057 -27.07899 290 ft 212 kts 319°
2026-05-06 23:43 38.76159 -27.09065 236 ft 198 kts 321°
2026-05-06 23:43 38.77179 -27.10153 217 ft 184 kts 319°
2026-05-06 23:43 38.78119 -27.11153 365 ft 169 kts 318°
2026-05-06 23:43 38.78897 -27.12219 574 ft 166 kts 306°
2026-05-06 23:44 38.79508 -27.13351 457 ft 139 kts 301°
2026-05-06 23:44 38.79854 -27.14270 598 ft 110 kts 287°
2026-05-06 23:44 38.80298 -27.14933 873 ft 107 kts 343°
2026-05-06 23:44 38.81047 -27.14618 930 ft 118 kts 45°
2026-05-06 23:45 38.81701 -27.13792 1005 ft 153 kts 35°
2026-05-06 23:45 38.82753 -27.13237 1092 ft 171 kts
2026-05-06 23:45 38.84020 -27.13173 747 ft 209 kts 356°
2026-05-06 23:45 38.85468 -27.13029 831 ft 208 kts
2026-05-06 23:46 38.86883 -27.12691 963 ft 206 kts 19°
2026-05-06 23:46 38.87991 -27.11563 1087 ft 206 kts 58°
2026-05-06 23:46 38.88338 -27.09821 1208 ft 202 kts 96°
2026-05-06 23:46 38.87811 -27.08242 1328 ft 190 kts 133°
2026-05-06 23:47 38.86900 -27.07062 1462 ft 183 kts 139°
2026-05-06 23:47 38.85991 -27.05945 1588 ft 180 kts 139°
2026-05-06 23:47 38.85089 -27.04830 1715 ft 178 kts 139°
2026-05-06 23:47 38.84229 -27.03760 1839 ft 177 kts 139°
2026-05-06 23:48 38.83253 -27.02847 1963 ft 171 kts 165°
2026-05-06 23:48 38.82085 -27.02880 1998 ft 172 kts 194°
2026-05-06 23:48 38.80878 -27.03081 2004 ft 178 kts 182°
2026-05-06 23:48 38.79635 -27.02931 2009 ft 182 kts 175°
2026-05-06 23:49 38.78370 -27.02696 2007 ft 184 kts 174°
2026-05-06 23:49 38.77113 -27.02471 2009 ft 185 kts 175°
2026-05-06 23:49 38.75819 -27.02248 2012 ft 185 kts 175°
2026-05-06 23:49 38.74556 -27.02032 2009 ft 185 kts 175°
2026-05-06 23:50 38.73277 -27.01812 2007 ft 185 kts 175°
2026-05-06 23:50 38.71033 -27.02715 1991 ft 176 kts 239°
2026-05-06 23:50 38.70823 -27.04226 1992 ft 178 kts 279°
2026-05-06 23:51 38.71489 -27.05563 2012 ft 186 kts 319°
2026-05-06 23:51 38.72647 -27.06008 1535 ft 176 kts
2026-05-06 23:51 38.73722 -27.06511 622 ft 164 kts 318°
2026-05-06 23:51 38.74519 -27.07352 287 ft 127 kts 319°
2026-05-06 23:52 38.75150 -27.08014 203 ft 109 kts 319°
2026-05-06 23:52 38.75708 -27.08573 181 ft 94 kts 318°
2026-05-06 23:52 38.76138 -27.09036 174 ft 56 kts 321°
2026-05-06 23:52 38.76248 -27.09134 173 ft 0 kts 328°
2026-05-06 23:53 38.76249 -27.09134 173 ft 1 kts 331°
2026-05-06 23:53 38.76252 -27.09104 173 ft 7 kts 146°
2026-05-06 23:53 38.76271 -27.09070 173 ft 9 kts
2026-05-06 23:54 38.76346 -27.09062 172 ft 12 kts
2026-05-06 23:54 38.76436 -27.09085 172 ft 13 kts 343°
2026-05-06 23:54 38.76486 -27.09028 172 ft 11 kts 51°
2026-05-06 23:54 38.76499 -27.09006 172 ft 0 kts 51°